createdAt,value
2023-04-08T00:01:05.951Z,101085.39
2023-04-08T00:06:08.402Z,101091.05
2023-04-08T00:11:10.032Z,101094.96
2023-04-08T00:16:11.584Z,101099.94
2023-04-08T00:21:14.552Z,101095.84
2023-04-08T00:26:16.596Z,101101.31
2023-04-08T00:31:18.134Z,101097.03
2023-04-08T00:36:19.789Z,101100.12
2023-04-08T00:41:21.522Z,101096.52
2023-04-08T00:46:23.088Z,101097.90
2023-04-08T00:51:24.750Z,101101.80
2023-04-08T00:56:28.256Z,101110.33
2023-04-08T01:02:18.492Z,101114.89
2023-04-08T01:07:28.882Z,101121.33
2023-04-08T01:12:32.558Z,101120.59
2023-04-08T01:17:36.773Z,101124.45
2023-04-08T01:22:58.302Z,101125.70
2023-04-08T01:28:16.665Z,101127.92
2023-04-08T01:33:20.148Z,101129.10
2023-04-08T01:38:26.446Z,101127.55
2023-04-08T01:43:29.620Z,101122.30
2023-04-08T01:48:32.139Z,101124.91
2023-04-08T01:53:34.153Z,101131.27
2023-04-08T01:58:43.018Z,101134.24
2023-04-08T02:03:47.163Z,101137.54
2023-04-08T02:08:48.891Z,101146.61
2023-04-08T02:13:51.021Z,101148.60
2023-04-08T02:19:08.634Z,101161.09
2023-04-08T02:24:13.958Z,101166.44
2023-04-08T02:29:17.360Z,101166.98
2023-04-08T02:34:22.736Z,101164.83
2023-04-08T02:39:32.476Z,101170.80
2023-04-08T02:44:34.048Z,101178.20
2023-04-08T02:49:35.651Z,101182.36
2023-04-08T02:54:37.145Z,101192.23
2023-04-08T02:59:40.996Z,101193.29
2023-04-08T03:04:42.901Z,101195.50
2023-04-08T03:09:44.422Z,101204.29
2023-04-08T03:14:45.917Z,101207.37
2023-04-08T03:19:47.539Z,101210.42
2023-04-08T03:24:49.020Z,101214.94
2023-04-08T03:29:51.076Z,101217.90
2023-04-08T03:34:53.637Z,101215.02
2023-04-08T03:39:55.608Z,101218.88
2023-04-08T03:44:57.391Z,101222.83
2023-04-08T03:49:59.094Z,101223.09
2023-04-08T03:55:00.770Z,101223.49
2023-04-08T04:00:02.969Z,101226.05
2023-04-08T04:05:05.380Z,101229.28
2023-04-08T04:10:07.862Z,101237.02
2023-04-08T04:15:10.124Z,101241.61
2023-04-08T04:20:12.243Z,101247.60
2023-04-08T04:25:13.842Z,101256.81
2023-04-08T04:30:15.854Z,101256.56
2023-04-08T04:35:17.547Z,101264.39
2023-04-08T04:40:19.225Z,101265.05
2023-04-08T04:45:21.439Z,101268.45
2023-04-08T04:50:23.662Z,101270.41
2023-04-08T04:55:26.285Z,101274.09
2023-04-08T05:00:27.791Z,101274.37
2023-04-08T05:05:29.291Z,101278.52
2023-04-08T05:10:31.269Z,101283.10
2023-04-08T05:15:32.784Z,101288.36
2023-04-08T05:20:34.277Z,101294.49
2023-04-08T05:25:36.318Z,101293.40
2023-04-08T05:30:37.831Z,101294.80
2023-04-08T05:35:39.356Z,101287.60
2023-04-08T05:40:41.613Z,101289.90
2023-04-08T05:45:43.134Z,101293.47
2023-04-08T05:50:44.682Z,101298.30
2023-04-08T05:55:46.197Z,101297.64
2023-04-08T06:00:48.024Z,101299.36
2023-04-08T06:05:49.716Z,101301.94
2023-04-08T06:10:52.492Z,101294.97
2023-04-08T06:15:54.252Z,101299.41
2023-04-08T06:20:55.920Z,101293.52
2023-04-08T06:25:57.639Z,101293.86
2023-04-08T06:30:59.929Z,101300.30
2023-04-08T06:36:06.178Z,101308.00
2023-04-08T06:41:08.777Z,101314.15
2023-04-08T06:46:10.578Z,101317.96
2023-04-08T06:51:12.257Z,101322.98
2023-04-08T06:56:13.887Z,101327.23
2023-04-08T07:01:16.747Z,101325.89
2023-04-08T07:06:18.791Z,101330.25
2023-04-08T07:11:21.342Z,101338.90
2023-04-08T07:16:22.927Z,101332.89
2023-04-08T07:21:24.554Z,101331.14
2023-04-08T07:26:26.205Z,101342.25
2023-04-08T07:31:27.851Z,101342.61
2023-04-08T07:36:29.687Z,101344.11
2023-04-08T07:41:31.417Z,101348.41
2023-04-08T07:46:37.841Z,101347.07
2023-04-08T07:51:39.909Z,101343.63
2023-04-08T07:56:41.402Z,101347.55
2023-04-08T08:01:43.162Z,101350.96
2023-04-08T08:06:45.084Z,101342.91
2023-04-08T08:11:46.629Z,101338.75
2023-04-08T08:16:49.789Z,101338.44
2023-04-08T08:21:52.294Z,101338.83
2023-04-08T08:26:53.862Z,101337.95
2023-04-08T08:31:55.350Z,101337.74
2023-04-08T08:36:57.240Z,101334.28
2023-04-08T08:41:59.073Z,101332.21
2023-04-08T08:47:01.356Z,101330.50
2023-04-08T08:52:03.440Z,101334.50
2023-04-08T08:57:04.930Z,101337.09
2023-04-08T09:02:24.561Z,101340.51
2023-04-08T09:07:27.754Z,101340.95
2023-04-08T09:12:30.819Z,101341.08
2023-04-08T09:17:35.625Z,101341.72
2023-04-08T09:23:00.702Z,101341.58
2023-04-08T09:28:03.227Z,101342.53
2023-04-08T09:33:07.439Z,101345.17
2023-04-08T09:38:09.181Z,101344.11
2023-04-08T09:43:13.625Z,101332.09
2023-04-08T09:48:24.626Z,101330.18
2023-04-08T09:53:28.800Z,101320.35
2023-04-08T09:58:39.067Z,101317.23
2023-04-08T10:03:49.024Z,101313.77
2023-04-08T10:08:51.621Z,101306.70
2023-04-08T10:13:53.768Z,101301.39
2023-04-08T10:18:56.369Z,101297.55
2023-04-08T10:24:00.138Z,101291.94
2023-04-08T10:29:31.683Z,101294.98
2023-04-08T10:34:33.534Z,101287.27
2023-04-08T10:39:38.681Z,101275.18
2023-04-08T10:44:46.158Z,101272.45
2023-04-08T10:49:48.760Z,101272.73
2023-04-08T10:54:50.442Z,101266.39
2023-04-08T10:59:52.060Z,101265.22
2023-04-08T11:04:54.459Z,101260.98
2023-04-08T11:09:56.653Z,101252.93
2023-04-08T11:14:58.235Z,101247.87
2023-04-08T11:20:02.604Z,101251.69
2023-04-08T11:25:05.538Z,101254.17
2023-04-08T11:30:09.116Z,101244.78
2023-04-08T11:35:10.985Z,101241.65
2023-04-08T11:40:13.271Z,101239.48
2023-04-08T11:45:16.754Z,101224.35
2023-04-08T11:50:30.067Z,101225.30
2023-04-08T11:55:33.060Z,101222.64
2023-04-08T12:00:34.649Z,101218.16
2023-04-08T12:05:36.921Z,101210.50
2023-04-08T12:10:38.450Z,101206.11
2023-04-08T12:15:39.960Z,101201.38
2023-04-08T12:20:41.473Z,101193.58
2023-04-08T12:25:43.448Z,101193.11
2023-04-08T12:30:44.931Z,101185.06
2023-04-08T12:35:46.977Z,101180.60
2023-04-08T12:40:50.255Z,101176.30
2023-04-08T12:45:52.099Z,101169.97
2023-04-08T12:50:53.932Z,101164.19
2023-04-08T12:55:57.700Z,101161.77
2023-04-08T13:00:59.338Z,101156.74
2023-04-08T13:06:01.357Z,101157.04
2023-04-08T13:11:03.283Z,101151.60
2023-04-08T13:16:04.985Z,101145.30
2023-04-08T13:21:06.878Z,101137.39
2023-04-08T13:26:08.375Z,101131.42
2023-04-08T13:31:10.099Z,101131.71
2023-04-08T13:36:11.649Z,101128.06
2023-04-08T13:41:13.157Z,101126.90
2023-04-08T13:46:15.145Z,101125.91
2023-04-08T13:51:17.021Z,101126.34
2023-04-08T13:56:18.964Z,101128.25
2023-04-08T14:01:20.958Z,101132.96
2023-04-08T14:06:22.592Z,101132.70
2023-04-08T14:11:24.452Z,101126.19
2023-04-08T14:16:26.086Z,101125.12
2023-04-08T14:21:27.625Z,101123.52
2023-04-08T14:26:29.248Z,101120.38
2023-04-08T14:31:32.524Z,101116.70
2023-04-08T14:36:34.085Z,101116.69
2023-04-08T14:41:35.707Z,101119.86
2023-04-08T14:46:37.629Z,101123.44
2023-04-08T14:51:39.619Z,101126.61
2023-04-08T14:56:41.105Z,101125.94
2023-04-08T15:01:44.907Z,101127.66
2023-04-08T15:06:47.053Z,101128.77
2023-04-08T15:11:48.623Z,101134.95
2023-04-08T15:16:50.686Z,101134.27
2023-04-08T15:24:32.314Z,101135.05
2023-04-08T15:29:33.812Z,101140.07
2023-04-08T15:34:35.376Z,101138.59
2023-04-08T15:39:36.902Z,101141.60
2023-04-08T15:44:38.384Z,101141.04
2023-04-08T15:49:40.473Z,101146.41
2023-04-08T15:54:41.974Z,101148.23
2023-04-08T15:59:43.573Z,101153.50
2023-04-08T16:04:45.136Z,101154.52
2023-04-08T16:09:47.054Z,101155.41
2023-04-08T16:14:48.568Z,101156.77
2023-04-08T16:19:52.081Z,101161.27
2023-04-08T16:24:53.817Z,101166.30
2023-04-08T16:29:57.506Z,101162.86
2023-04-08T16:34:59.259Z,101159.64
2023-04-08T16:40:01.704Z,101163.13
2023-04-08T16:45:03.873Z,101166.09
2023-04-08T16:50:07.854Z,101166.02
2023-04-08T16:55:10.735Z,101171.77
2023-04-08T17:00:13.953Z,101177.77
2023-04-08T17:05:15.991Z,101181.67
2023-04-08T17:10:18.867Z,101184.73
2023-04-08T17:15:20.563Z,101187.40
2023-04-08T17:20:22.850Z,101193.33
2023-04-08T17:25:25.134Z,101197.61
2023-04-08T17:30:27.056Z,101201.49
2023-04-08T17:35:28.551Z,101204.20
2023-04-08T17:40:30.605Z,101207.39
2023-04-08T17:45:32.298Z,101215.48
2023-04-08T17:50:33.925Z,101221.61
2023-04-08T17:55:35.606Z,101223.05
2023-04-08T18:00:37.117Z,101229.48
2023-04-08T18:05:38.674Z,101230.46
2023-04-08T18:10:41.480Z,101234.61
2023-04-08T18:15:43.212Z,101241.20
2023-04-08T18:20:45.763Z,101246.30
2023-04-08T18:25:48.351Z,101247.54
2023-04-08T18:30:53.247Z,101249.48
2023-04-08T18:35:56.124Z,101252.55
2023-04-08T18:40:59.255Z,101253.50
2023-04-08T18:46:01.084Z,101264.14
2023-04-08T18:51:02.765Z,101266.02
2023-04-08T18:56:05.336Z,101267.93
2023-04-08T19:01:08.155Z,101264.95
2023-04-08T19:06:11.584Z,101264.04
2023-04-08T19:11:13.288Z,101264.53
2023-04-08T19:16:14.852Z,101266.05
2023-04-08T19:21:16.713Z,101268.21
2023-04-08T19:26:18.758Z,101273.67
2023-04-08T19:31:21.643Z,101269.52
2023-04-08T19:36:23.304Z,101267.95
2023-04-08T19:41:25.098Z,101262.56
2023-04-08T19:46:29.165Z,101260.95
2023-04-08T19:51:32.840Z,101261.45
2023-04-08T19:56:34.575Z,101263.96
2023-04-08T20:01:36.426Z,101263.48
2023-04-08T20:06:38.054Z,101265.02
2023-04-08T20:11:39.553Z,101259.39
2023-04-08T20:16:41.106Z,101256.12
2023-04-08T20:21:42.632Z,101261.12
2023-04-08T20:26:44.777Z,101257.80
2023-04-08T20:31:46.983Z,101258.98
2023-04-08T20:36:48.584Z,101262.92
2023-04-08T20:41:50.062Z,101262.02
2023-04-08T20:46:52.006Z,101259.93
2023-04-08T20:51:53.732Z,101263.63
2023-04-08T20:56:55.673Z,101264.17
2023-04-08T21:01:57.284Z,101261.86
2023-04-08T21:06:59.133Z,101259.53
2023-04-08T21:12:01.485Z,101261.29
2023-04-08T21:17:03.559Z,101263.23
2023-04-08T21:22:06.225Z,101268.80
2023-04-08T21:27:07.814Z,101265.41
2023-04-08T21:32:09.589Z,101267.10
2023-04-08T21:37:11.280Z,101266.74
2023-04-08T21:42:12.760Z,101267.11
2023-04-08T21:47:14.506Z,101269.73
2023-04-08T21:52:16.573Z,101263.44
2023-04-08T21:57:18.707Z,101265.70
2023-04-08T22:02:20.611Z,101264.02
2023-04-08T22:07:22.555Z,101254.39
2023-04-08T22:12:24.118Z,101245.80
2023-04-08T22:17:27.050Z,101235.02
2023-04-08T22:22:28.607Z,101234.85
2023-04-08T22:27:30.453Z,101233.61
2023-04-08T22:32:32.028Z,101232.25
2023-04-08T22:37:33.930Z,101238.60
2023-04-08T22:42:35.669Z,101235.78
2023-04-08T22:47:37.634Z,101240.88
2023-04-08T22:52:39.204Z,101240.18
2023-04-08T22:57:41.121Z,101230.48
2023-04-08T23:02:42.733Z,101229.23
2023-04-08T23:07:44.402Z,101225.40
2023-04-08T23:12:45.924Z,101226.02
2023-04-08T23:17:47.499Z,101224.30
2023-04-08T23:22:49.245Z,101228.59
2023-04-08T23:27:50.766Z,101229.27
2023-04-08T23:32:52.361Z,101225.28
2023-04-08T23:37:54.159Z,101220.48
2023-04-08T23:42:55.659Z,101222.02
2023-04-08T23:47:57.358Z,101213.89
2023-04-08T23:52:59.022Z,101209.58
2023-04-08T23:58:00.508Z,101204.63
